Time;durP1;ratioP1;P1;durP2;ratioP2;P2;SDS_P1;SDS_P2;PMS_P1;PMS_P2;Temp;Humidity;BMP_temperature;BMP_pressure;BME280_temperature;BME280_humidity;BME280_pressure;Samples;Min_cycle;Max_cycle;Signal;HPM_P1;HPM_P2
2022/06/26 00:00:12;;;;;;;4.13;3.33;;;21.50;99.90;;;;;;5027715;28;20488;-81
2022/06/26 00:02:38;;;;;;;3.87;2.80;;;21.70;99.90;;;;;;5037695;28;20997;-81
2022/06/26 00:05:07;;;;;;;6.00;3.40;;;21.70;99.90;;;;;;5036755;28;20532;-81
2022/06/26 00:07:34;;;;;;;7.47;5.07;;;21.70;99.90;;;;;;5037310;28;20445;-79
2022/06/26 00:10:01;;;;;;;5.13;4.20;;;21.70;99.90;;;;;;5017133;28;20889;-77
2022/06/26 00:12:28;;;;;;;8.83;6.27;;;21.60;99.90;;;;;;5017363;28;20474;-80
2022/06/26 00:14:55;;;;;;;9.50;8.53;;;21.60;99.90;;;;;;5015911;28;20552;-81
2022/06/26 00:17:23;;;;;;;12.03;10.43;;;21.60;99.90;;;;;;5016932;28;20832;-77
2022/06/26 00:19:50;;;;;;;11.93;10.73;;;21.50;99.90;;;;;;5017229;28;20560;-80
2022/06/26 00:22:17;;;;;;;10.20;9.20;;;21.20;99.90;;;;;;5016695;28;20521;-81
2022/06/26 00:24:45;;;;;;;11.40;9.30;;;21.20;99.90;;;;;;5017983;28;20537;-78
2022/06/26 00:27:12;;;;;;;9.80;8.80;;;21.30;99.90;;;;;;5017970;28;20520;-77
2022/06/26 00:29:39;;;;;;;9.63;8.70;;;21.10;99.90;;;;;;5015426;28;20998;-80
2022/06/26 00:32:07;;;;;;;11.50;8.30;;;21.00;99.90;;;;;;5016318;28;21016;-79
2022/06/26 00:34:35;;;;;;;7.03;6.40;;;21.00;99.90;;;;;;5015971;28;20464;-79
2022/06/26 00:37:02;;;;;;;7.27;6.57;;;21.00;99.90;;;;;;5016171;28;20900;-82
2022/06/26 00:39:28;;;;;;;9.20;6.13;;;21.00;99.90;;;;;;5016034;28;20481;-81
2022/06/26 00:41:55;;;;;;;8.00;5.40;;;21.00;99.90;;;;;;5017640;28;20509;-80
2022/06/26 00:44:23;;;;;;;7.23;6.50;;;20.90;99.90;;;;;;5016839;28;20962;-79
2022/06/26 00:46:52;;;;;;;6.43;5.83;;;20.70;99.90;;;;;;5017449;28;20486;-78
2022/06/26 00:49:20;;;;;;;7.37;5.93;;;20.80;99.90;;;;;;5017342;28;20569;-80
2022/06/26 00:51:51;;;;;;;5.40;4.90;;;20.80;99.90;;;;;;5018228;28;20463;-80
2022/06/26 00:54:19;;;;;;;8.10;5.57;;;20.80;99.90;;;;;;5005678;28;20981;-80
2022/06/26 00:56:46;;;;;;;8.70;7.00;;;20.80;99.90;;;;;;4997667;28;20454;-77
2022/06/26 00:59:14;;;;;;;8.30;5.90;;;20.70;99.90;;;;;;5015248;28;20539;-80
2022/06/26 01:01:41;;;;;;;8.17;5.80;;;20.80;99.90;;;;;;5018114;28;20489;-80
2022/06/26 01:04:08;;;;;;;5.67;5.17;;;20.80;99.90;;;;;;5017501;28;20458;-81
2022/06/26 01:06:36;;;;;;;7.13;4.87;;;20.80;99.90;;;;;;5016482;28;21024;-79
2022/06/26 01:09:10;;;;;;;7.10;5.37;;;20.80;99.90;;;;;;5016197;28;20561;-79
2022/06/26 01:11:38;;;;;;;8.33;5.10;;;20.90;99.90;;;;;;5015838;28;20537;-79
2022/06/26 01:14:05;;;;;;;8.80;6.10;;;20.90;99.90;;;;;;5015163;28;20489;-81
2022/06/26 01:16:32;;;;;;;8.70;5.90;;;20.90;99.90;;;;;;5015387;28;20477;-81
2022/06/26 01:19:00;;;;;;;7.23;6.43;;;20.80;99.90;;;;;;5014969;28;20500;-80
2022/06/26 01:21:27;;;;;;;7.33;5.93;;;20.80;99.90;;;;;;5015959;28;20533;-81
2022/06/26 01:23:56;;;;;;;6.77;5.30;;;20.80;99.90;;;;;;5015600;28;20897;-80
2022/06/26 01:26:23;;;;;;;5.70;5.10;;;20.80;99.90;;;;;;5014687;28;20836;-78
2022/06/26 01:28:50;;;;;;;6.13;5.53;;;20.70;99.90;;;;;;5014399;28;20552;-79
2022/06/26 01:31:18;;;;;;;8.43;6.27;;;20.70;99.90;;;;;;5014348;28;20557;-80
2022/06/26 01:33:46;;;;;;;8.07;6.03;;;20.60;99.90;;;;;;5013184;28;20465;-78
2022/06/26 01:36:13;;;;;;;5.13;4.63;;;20.50;99.90;;;;;;5006114;28;20537;-78
2022/06/26 01:38:40;;;;;;;9.30;6.30;;;20.50;99.90;;;;;;5013952;28;20576;-80
2022/06/26 01:41:08;;;;;;;7.93;5.83;;;20.50;99.90;;;;;;5013810;28;20545;-80
2022/06/26 01:43:38;;;;;;;7.67;6.40;;;20.40;99.90;;;;;;5013403;28;20496;-79
2022/06/26 01:46:06;;;;;;;5.83;5.20;;;20.30;99.90;;;;;;5013512;28;20523;-80
2022/06/26 01:48:35;;;;;;;8.30;5.77;;;20.30;99.90;;;;;;5014075;28;20942;-80
2022/06/26 01:51:03;;;;;;;9.20;5.07;;;20.20;99.90;;;;;;5014507;28;20600;-79
2022/06/26 01:53:31;;;;;;;6.30;5.33;;;20.20;99.90;;;;;;5014695;28;20454;-81
2022/06/26 01:55:58;;;;;;;7.40;5.70;;;20.10;99.90;;;;;;5015903;28;20465;-79
2022/06/26 01:58:26;;;;;;;6.87;5.73;;;20.10;99.90;;;;;;5014641;28;20890;-80
2022/06/26 02:00:54;;;;;;;6.00;5.20;;;20.10;99.90;;;;;;5015231;28;20456;-79
2022/06/26 02:03:22;;;;;;;6.83;5.80;;;20.00;99.90;;;;;;5017803;28;20468;-78
2022/06/26 02:05:49;;;;;;;6.67;5.67;;;20.00;99.90;;;;;;5022014;28;20457;-78
2022/06/26 02:08:17;;;;;;;7.03;6.10;;;20.00;99.90;;;;;;5020112;28;20480;-77
2022/06/26 02:13:37;;;;;;;10.83;6.03;;;20.00;99.90;;;;;;5015356;28;20499;-82
2022/06/26 02:16:05;;;;;;;7.30;6.27;;;19.90;99.90;;;;;;5016390;28;20464;-80
2022/06/26 02:18:32;;;;;;;8.20;6.50;;;19.90;99.90;;;;;;5015414;28;21087;-80
2022/06/26 02:20:59;;;;;;;9.47;6.83;;;19.90;99.90;;;;;;5017196;28;20549;-79
2022/06/26 02:23:26;;;;;;;8.60;6.70;;;19.80;99.90;;;;;;5018201;28;20544;-82
2022/06/26 02:25:53;;;;;;;9.00;7.13;;;19.80;99.90;;;;;;5023420;28;20497;-79
2022/06/26 02:28:19;;;;;;;7.50;6.60;;;19.80;99.90;;;;;;5020520;28;20540;-78
2022/06/26 02:30:48;;;;;;;8.53;7.20;;;19.80;99.90;;;;;;5014591;28;20851;-79
2022/06/26 02:33:14;;;;;;;7.53;6.73;;;19.80;99.90;;;;;;5014427;28;20465;-80
2022/06/26 02:35:41;;;;;;;7.17;6.57;;;19.80;99.90;;;;;;5014875;28;20544;-79
2022/06/26 02:38:08;;;;;;;6.73;6.03;;;19.70;99.90;;;;;;5014251;28;20477;-80
2022/06/26 02:40:35;;;;;;;7.50;6.53;;;19.80;99.90;;;;;;5014506;28;20524;-80
2022/06/26 02:43:02;;;;;;;6.37;5.77;;;19.70;99.90;;;;;;5014343;28;20541;-80
2022/06/26 02:45:29;;;;;;;5.77;4.90;;;19.80;99.90;;;;;;5014869;28;20473;-80
2022/06/26 02:47:57;;;;;;;6.50;4.90;;;19.70;99.90;;;;;;5014691;28;20476;-81
2022/06/26 02:50:24;;;;;;;6.10;5.20;;;19.70;99.90;;;;;;5015049;28;20497;-81
2022/06/26 02:52:51;;;;;;;7.77;5.63;;;19.70;99.90;;;;;;5015840;28;20549;-81
2022/06/26 02:55:19;;;;;;;10.17;5.50;;;19.60;99.90;;;;;;5016620;28;20567;-81
2022/06/26 02:57:46;;;;;;;7.20;5.07;;;19.60;99.90;;;;;;5019226;28;20458;-78
2022/06/26 03:00:15;;;;;;;5.43;4.93;;;19.60;99.90;;;;;;5018617;28;20702;-80
2022/06/26 03:02:42;;;;;;;7.80;5.60;;;19.60;99.90;;;;;;5017973;28;20548;-82
2022/06/26 03:05:11;;;;;;;9.30;6.60;;;19.60;99.90;;;;;;5017804;28;20545;-81
2022/06/26 03:07:38;;;;;;;8.50;4.93;;;19.60;99.90;;;;;;5018302;28;20978;-82
2022/06/26 03:10:05;;;;;;;6.73;4.30;;;19.60;99.90;;;;;;5018089;28;20471;-80
2022/06/26 03:12:32;;;;;;;8.07;5.30;;;19.60;99.90;;;;;;5018040;28;20537;-81
2022/06/26 03:14:59;;;;;;;5.53;4.80;;;19.70;99.90;;;;;;5017880;28;20521;-81
2022/06/26 03:17:26;;;;;;;5.77;4.60;;;19.70;99.90;;;;;;5018730;28;20465;-82
2022/06/26 03:19:53;;;;;;;7.10;4.87;;;19.60;99.90;;;;;;5015842;28;20587;-82
2022/06/26 03:22:21;;;;;;;6.00;4.27;;;19.60;99.90;;;;;;5019504;28;21053;-84
2022/06/26 03:24:48;;;;;;;4.30;3.90;;;19.50;99.90;;;;;;5024895;28;20544;-81
2022/06/26 03:27:15;;;;;;;6.47;4.70;;;19.50;99.90;;;;;;5038485;28;20495;-80
2022/06/26 03:29:41;;;;;;;8.93;4.93;;;19.40;99.90;;;;;;5038953;28;20508;-81
2022/06/26 03:32:09;;;;;;;6.40;4.73;;;19.50;99.90;;;;;;5038025;28;20463;-80
2022/06/26 03:34:36;;;;;;;6.60;5.70;;;19.50;99.90;;;;;;5022993;28;20465;-79
2022/06/26 03:37:03;;;;;;;5.73;5.23;;;19.50;99.90;;;;;;5017389;28;20552;-80
2022/06/26 03:39:31;;;;;;;5.63;4.77;;;19.50;99.90;;;;;;5027471;28;20528;-81
2022/06/26 03:42:01;;;;;;;5.93;4.93;;;19.50;99.90;;;;;;5038242;28;20507;-80
2022/06/26 03:44:29;;;;;;;6.50;4.60;;;19.50;99.90;;;;;;5024745;28;20461;-80
2022/06/26 03:46:57;;;;;;;7.93;5.90;;;19.50;99.90;;;;;;5017330;28;20548;-84
2022/06/26 03:49:24;;;;;;;8.17;6.30;;;19.50;99.90;;;;;;5018596;28;20563;-81
2022/06/26 03:51:51;;;;;;;7.77;5.77;;;19.40;99.90;;;;;;5018911;28;20464;-83
2022/06/26 03:54:19;;;;;;;6.70;5.90;;;19.40;99.90;;;;;;5018437;28;20457;-82
2022/06/26 03:56:48;;;;;;;6.40;5.43;;;19.40;99.90;;;;;;5018364;28;20492;-81
2022/06/26 03:59:15;;;;;;;5.40;4.90;;;19.40;99.90;;;;;;5019689;28;20549;-82
2022/06/26 04:01:42;;;;;;;5.90;5.30;;;19.50;99.90;;;;;;5019385;28;20898;-83
2022/06/26 04:04:08;;;;;;;10.27;5.80;;;19.50;99.90;;;;;;5016336;28;21017;-83
2022/06/26 04:06:36;;;;;;;6.80;6.10;;;19.50;99.90;;;;;;5018747;28;21021;-84
2022/06/26 04:09:03;;;;;;;6.23;5.63;;;19.50;99.90;;;;;;5019228;28;20512;-82
2022/06/26 04:11:30;;;;;;;7.57;6.03;;;19.60;99.90;;;;;;5018727;28;20879;-82
2022/06/26 04:13:58;;;;;;;7.90;5.53;;;19.70;99.90;;;;;;5020200;28;20484;-83
2022/06/26 04:16:26;;;;;;;4.40;3.83;;;19.70;99.90;;;;;;5021159;28;20488;-83
2022/06/26 04:18:53;;;;;;;5.43;4.93;;;19.80;99.90;;;;;;5021321;28;21036;-83
2022/06/26 04:21:19;;;;;;;8.53;5.00;;;19.90;99.90;;;;;;5022089;28;20537;-85
2022/06/26 04:23:46;;;;;;;5.93;5.10;;;19.80;99.90;;;;;;5023332;28;20450;-85
2022/06/26 04:26:13;;;;;;;5.20;3.97;;;19.90;99.90;;;;;;5028086;28;21054;-83
2022/06/26 04:28:40;;;;;;;5.90;4.67;;;19.90;99.90;;;;;;5036083;28;20556;-84
2022/06/26 04:31:08;;;;;;;6.33;4.50;;;19.90;99.90;;;;;;5022845;28;20532;-82
2022/06/26 04:33:35;;;;;;;5.40;4.40;;;20.00;99.90;;;;;;5036069;28;20449;-82
2022/06/26 04:36:02;;;;;;;7.20;4.57;;;20.00;99.90;;;;;;5023280;28;20450;-84
2022/06/26 04:38:29;;;;;;;7.13;5.60;;;20.00;99.90;;;;;;5021183;28;20466;-83
2022/06/26 04:40:56;;;;;;;5.70;4.10;;;20.00;99.90;;;;;;5017548;28;20569;-84
2022/06/26 04:43:23;;;;;;;6.07;5.17;;;20.00;99.90;;;;;;5020584;28;20515;-83
2022/06/26 04:45:50;;;;;;;5.13;3.90;;;20.00;99.90;;;;;;5021788;28;20783;-85
2022/06/26 04:48:18;;;;;;;5.53;3.90;;;20.00;99.90;;;;;;5021823;28;20561;-84
2022/06/26 04:50:45;;;;;;;5.67;4.33;;;20.10;99.90;;;;;;5018873;28;20539;-83
2022/06/26 04:53:12;;;;;;;7.70;5.10;;;20.10;99.90;;;;;;5019694;28;20540;-85
2022/06/26 04:55:39;;;;;;;5.33;4.83;;;20.00;99.90;;;;;;5019248;28;20500;-83
2022/06/26 04:58:09;;;;;;;7.37;5.17;;;20.00;99.90;;;;;;5019062;28;20849;-84
2022/06/26 05:00:38;;;;;;;5.13;4.60;;;19.90;99.90;;;;;;5018790;28;20496;-83
2022/06/26 05:03:05;;;;;;;5.13;4.60;;;19.90;99.90;;;;;;5020103;28;20540;-83
2022/06/26 05:05:33;;;;;;;5.10;3.73;;;19.90;99.90;;;;;;5019991;28;20461;-84
2022/06/26 05:08:00;;;;;;;5.67;3.87;;;20.00;99.90;;;;;;5030700;28;20831;-82
2022/06/26 05:10:27;;;;;;;5.40;4.60;;;20.10;99.90;;;;;;5026314;28;20441;-82
2022/06/26 05:12:54;;;;;;;7.17;5.10;;;20.10;99.90;;;;;;5026257;28;20446;-84
2022/06/26 05:15:21;;;;;;;6.93;3.97;;;20.30;99.90;;;;;;5021701;28;20805;-85
2022/06/26 05:17:48;;;;;;;6.97;5.20;;;20.50;99.90;;;;;;5023772;28;20466;-82
2022/06/26 05:20:17;;;;;;;6.13;5.10;;;20.50;99.90;;;;;;5021266;28;20514;-82
2022/06/26 05:22:46;;;;;;;6.97;5.00;;;20.50;99.90;;;;;;5009671;28;20451;-83
2022/06/26 05:25:13;;;;;;;5.90;5.30;;;20.60;99.90;;;;;;5011914;28;20450;-83
2022/06/26 05:27:40;;;;;;;9.20;6.30;;;20.50;99.90;;;;;;5018752;28;20497;-83
2022/06/26 05:30:07;;;;;;;6.40;5.50;;;20.40;99.90;;;;;;5021131;28;20481;-82
2022/06/26 05:32:34;;;;;;;11.77;5.83;;;20.30;99.90;;;;;;5025089;28;20473;-78
2022/06/26 05:35:01;;;;;;;6.33;5.73;;;20.30;99.90;;;;;;5025048;28;20867;-79
2022/06/26 05:37:28;;;;;;;8.60;5.90;;;20.20;99.90;;;;;;5021176;28;20441;-84
2022/06/26 05:39:56;;;;;;;6.63;5.60;;;20.20;99.90;;;;;;5014027;28;20489;-82
2022/06/26 05:42:23;;;;;;;7.67;6.87;;;20.10;99.90;;;;;;5010188;28;20493;-83
2022/06/26 05:44:50;;;;;;;6.70;6.03;;;20.10;99.90;;;;;;5016830;28;20533;-82
2022/06/26 05:47:17;;;;;;;9.70;6.13;;;20.00;99.90;;;;;;5017034;28;20492;-82
2022/06/26 05:49:44;;;;;;;7.13;6.40;;;20.00;99.90;;;;;;5014944;28;20481;-82
2022/06/26 05:52:11;;;;;;;7.50;6.20;;;19.90;99.90;;;;;;5017458;28;20552;-82
2022/06/26 05:54:38;;;;;;;7.37;6.27;;;20.00;99.90;;;;;;5015223;28;20477;-80
2022/06/26 05:57:06;;;;;;;7.93;6.80;;;20.00;99.90;;;;;;5015169;28;20469;-82
2022/06/26 05:59:33;;;;;;;6.00;5.23;;;20.10;99.90;;;;;;5015867;28;20543;-82
2022/06/26 06:02:00;;;;;;;6.70;5.97;;;20.20;99.90;;;;;;5016365;28;20489;-82
2022/06/26 06:04:27;;;;;;;7.50;5.53;;;20.10;99.90;;;;;;5016518;28;20473;-82
2022/06/26 06:06:56;;;;;;;4.97;4.47;;;20.20;99.90;;;;;;5012939;28;20454;-82
2022/06/26 06:09:22;;;;;;;5.77;4.87;;;20.20;99.90;;;;;;5011384;28;20504;-81
2022/06/26 06:11:49;;;;;;;5.60;5.10;;;20.20;99.90;;;;;;5016363;28;20513;-80
2022/06/26 06:14:25;;;;;;;8.83;5.50;;;20.20;99.90;;;;;;5017429;28;20536;-81
2022/06/26 06:16:52;;;;;;;6.77;4.77;;;20.20;99.90;;;;;;5018544;28;20452;-81
2022/06/26 06:19:19;;;;;;;4.90;4.40;;;20.20;99.90;;;;;;5019640;28;20477;-80
2022/06/26 06:21:45;;;;;;;9.00;6.63;;;20.20;99.90;;;;;;5020448;28;20492;-80
2022/06/26 06:24:12;;;;;;;5.70;5.10;;;20.10;99.90;;;;;;5020471;28;20480;-81
2022/06/26 06:26:39;;;;;;;12.20;5.67;;;20.20;99.90;;;;;;5022983;28;20430;-81
2022/06/26 06:29:06;;;;;;;7.23;6.53;;;20.20;99.90;;;;;;5030852;28;20479;-82
2022/06/26 06:31:34;;;;;;;10.33;8.37;;;20.20;99.90;;;;;;5011075;28;20476;-80
2022/06/26 06:34:01;;;;;;;9.20;7.37;;;20.30;99.90;;;;;;5014818;28;20544;-81
2022/06/26 06:36:28;;;;;;;11.67;9.57;;;20.30;99.90;;;;;;5007294;28;20902;-82
2022/06/26 06:38:57;;;;;;;9.90;9.00;;;20.20;99.90;;;;;;5017146;28;20475;-81
2022/06/26 06:41:24;;;;;;;9.97;8.93;;;20.20;99.90;;;;;;5016722;28;20477;-81
2022/06/26 06:43:53;;;;;;;11.67;10.57;;;20.20;99.90;;;;;;5018165;28;20480;-82
2022/06/26 06:46:20;;;;;;;12.67;11.40;;;20.30;99.90;;;;;;5018913;28;20540;-82
2022/06/26 06:48:48;;;;;;;10.90;9.90;;;20.10;99.90;;;;;;5017211;28;21078;-80
2022/06/26 06:51:15;;;;;;;11.50;10.37;;;20.20;99.90;;;;;;5020354;28;20517;-82
2022/06/26 06:53:42;;;;;;;11.50;10.40;;;20.40;99.90;;;;;;5012243;28;20457;-82
2022/06/26 06:56:09;;;;;;;9.70;8.70;;;20.50;99.90;;;;;;5009970;28;20458;-79
2022/06/26 06:58:36;;;;;;;12.20;9.67;;;20.70;99.90;;;;;;5011039;28;20477;-80
2022/06/26 07:01:03;;;;;;;9.67;8.50;;;20.70;99.90;;;;;;5018796;28;20851;-81
2022/06/26 07:03:30;;;;;;;10.63;9.53;;;20.80;99.90;;;;;;5020518;28;20477;-80
2022/06/26 07:05:58;;;;;;;10.47;8.73;;;20.80;99.90;;;;;;5025506;28;20453;-82
2022/06/26 07:08:25;;;;;;;7.50;6.67;;;20.90;99.90;;;;;;5018926;28;20550;-82
2022/06/26 07:10:51;;;;;;;6.00;5.20;;;20.90;99.90;;;;;;5021571;28;20485;-82
2022/06/26 07:13:18;;;;;;;7.50;5.43;;;20.90;99.90;;;;;;5023297;28;20465;-83
2022/06/26 07:15:45;;;;;;;4.80;4.20;;;20.90;99.90;;;;;;5019427;28;20478;-82
2022/06/26 07:18:12;;;;;;;4.10;3.70;;;20.90;99.90;;;;;;5019603;28;20533;-82
2022/06/26 07:20:39;;;;;;;4.70;3.40;;;21.00;99.90;;;;;;5019900;28;20570;-82
2022/06/26 07:23:07;;;;;;;5.67;3.60;;;20.90;99.90;;;;;;5019809;28;20541;-82
2022/06/26 07:25:40;;;;;;;6.97;4.10;;;20.90;99.90;;;;;;5019389;28;20815;-82
2022/06/26 07:28:08;;;;;;;4.17;3.10;;;20.90;99.90;;;;;;5016996;28;20505;-82
2022/06/26 07:30:35;;;;;;;4.60;3.20;;;21.10;99.90;;;;;;5018782;28;20466;-81
2022/06/26 07:35:53;;;;;;;4.80;3.70;;;21.40;99.90;;;;;;5018969;28;20433;-83
2022/06/26 07:38:21;;;;;;;5.13;3.90;;;21.50;99.90;;;;;;5020298;28;20497;-83
2022/06/26 07:40:48;;;;;;;4.40;3.20;;;21.40;99.90;;;;;;5019034;28;20586;-83
2022/06/26 07:43:15;;;;;;;3.50;3.20;;;21.30;99.90;;;;;;5020203;28;20559;-83
2022/06/26 07:45:42;;;;;;;3.80;2.30;;;21.40;99.90;;;;;;5020247;28;20524;-83
2022/06/26 07:48:09;;;;;;;5.20;3.40;;;21.40;99.90;;;;;;5020040;28;20557;-83
2022/06/26 07:50:36;;;;;;;4.23;2.90;;;21.50;99.90;;;;;;5000653;28;20489;-81
2022/06/26 07:53:03;;;;;;;3.90;3.50;;;21.70;99.90;;;;;;5000495;28;20457;-82
2022/06/26 07:55:31;;;;;;;3.97;2.50;;;21.50;99.90;;;;;;5000184;28;20550;-81
2022/06/26 07:57:58;;;;;;;3.60;2.30;;;21.50;99.90;;;;;;5000330;28;20839;-79
2022/06/26 08:00:25;;;;;;;3.57;2.10;;;21.40;99.90;;;;;;5019251;28;20535;-79
2022/06/26 08:02:54;;;;;;;2.83;1.80;;;21.40;99.90;;;;;;5021021;28;20541;-80
2022/06/26 08:05:21;;;;;;;3.60;2.30;;;21.40;99.90;;;;;;5019835;28;20540;-81
2022/06/26 08:07:48;;;;;;;3.53;2.00;;;21.10;99.90;;;;;;5021546;28;20503;-80
2022/06/26 08:10:19;;;;;;;6.67;2.27;;;21.20;99.90;;;;;;5021264;28;20458;-81
2022/06/26 08:12:48;;;;;;;2.60;2.00;;;21.20;99.90;;;;;;5014953;28;20549;-81
2022/06/26 08:15:15;;;;;;;3.50;2.03;;;21.10;99.90;;;;;;5039654;28;20473;-81
2022/06/26 08:17:41;;;;;;;3.30;2.40;;;21.30;99.90;;;;;;5041324;28;20456;-81
2022/06/26 08:20:10;;;;;;;3.07;2.43;;;21.40;99.90;;;;;;5024530;28;20461;-82
2022/06/26 08:22:36;;;;;;;5.00;2.87;;;21.70;99.90;;;;;;5021662;28;20484;-82
2022/06/26 08:25:04;;;;;;;3.13;2.33;;;21.80;99.90;;;;;;5023304;28;20480;-81
2022/06/26 08:27:31;;;;;;;3.40;2.40;;;22.10;99.90;;;;;;5048352;28;20484;-82
2022/06/26 08:29:59;;;;;;;2.93;1.70;;;22.20;99.90;;;;;;5035544;28;20474;-81
2022/06/26 08:32:26;;;;;;;4.47;2.50;;;22.50;99.90;;;;;;5018513;28;20474;-82
2022/06/26 08:34:53;;;;;;;3.90;2.23;;;22.40;99.90;;;;;;5019323;28;20462;-82
2022/06/26 08:37:20;;;;;;;3.37;2.20;;;22.20;99.90;;;;;;5019813;28;21009;-81
2022/06/26 08:39:48;;;;;;;3.63;1.97;;;22.20;99.90;;;;;;5019359;28;20529;-82
2022/06/26 08:42:15;;;;;;;2.50;1.70;;;22.30;99.90;;;;;;5020188;28;20516;-81
2022/06/26 08:44:44;;;;;;;4.27;1.80;;;22.40;99.90;;;;;;5020025;28;21029;-82
2022/06/26 08:47:13;;;;;;;3.60;2.00;;;22.40;99.90;;;;;;5020053;28;20486;-82
2022/06/26 08:49:41;;;;;;;3.33;1.60;;;22.50;99.90;;;;;;5019661;28;20553;-81
2022/06/26 08:52:14;;;;;;;3.23;2.00;;;22.50;99.90;;;;;;5019199;28;20933;-82
2022/06/26 08:54:42;;;;;;;3.00;1.77;;;22.50;99.90;;;;;;5020328;28;20480;-82
2022/06/26 08:57:09;;;;;;;5.07;1.73;;;22.60;99.90;;;;;;5049875;28;21342;-81
2022/06/26 08:59:38;;;;;;;3.33;1.80;;;22.70;99.90;;;;;;5042262;28;20473;-82
2022/06/26 09:02:05;;;;;;;3.43;1.60;;;22.80;99.90;;;;;;5029924;28;20907;-83
2022/06/26 09:04:38;;;;;;;5.10;2.03;;;23.00;99.90;;;;;;5025657;28;20866;-82
2022/06/26 09:07:07;;;;;;;3.37;1.73;;;23.30;99.90;;;;;;5036237;28;20452;-82
2022/06/26 09:09:35;;;;;;;4.10;1.60;;;23.30;99.90;;;;;;5028295;28;20469;-83
2022/06/26 09:12:03;;;;;;;4.33;1.80;;;23.20;99.90;;;;;;5016742;28;20549;-83
2022/06/26 09:14:31;;;;;;;2.90;1.40;;;23.00;99.90;;;;;;5018228;28;21021;-83
2022/06/26 09:16:59;;;;;;;2.80;1.80;;;22.90;99.90;;;;;;5018993;28;20484;-83
2022/06/26 09:19:33;;;;;;;4.37;1.90;;;22.70;99.90;;;;;;5017610;28;20552;-84
2022/06/26 09:22:09;;;;;;;3.00;1.73;;;22.60;99.90;;;;;;5023591;28;20561;-83
2022/06/26 09:24:37;;;;;;;3.80;1.90;;;22.40;99.90;;;;;;5032674;28;20481;-83
2022/06/26 09:27:06;;;;;;;4.07;2.03;;;22.40;99.90;;;;;;5018962;28;20517;-84
2022/06/26 09:29:33;;;;;;;3.27;2.00;;;22.40;99.90;;;;;;5018076;28;20481;-83
2022/06/26 09:32:08;;;;;;;3.20;1.50;;;22.50;99.90;;;;;;5017974;28;20473;-84
2022/06/26 09:34:35;;;;;;;3.73;2.03;;;22.50;99.90;;;;;;5018550;28;20513;-86
2022/06/26 09:37:05;;;;;;;3.40;2.17;;;22.60;99.90;;;;;;5027560;28;20446;-83
2022/06/26 09:39:35;;;;;;;3.37;2.07;;;22.60;99.90;;;;;;5023070;28;20559;-83
2022/06/26 09:42:17;;;;;;;9.30;2.73;;;22.60;99.90;;;;;;5020195;28;20489;-83
2022/06/26 09:44:45;;;;;;;3.90;2.00;;;22.70;99.90;;;;;;5012100;28;20465;-83
2022/06/26 09:47:22;;;;;;;3.07;2.20;;;22.70;99.90;;;;;;5017190;28;20465;-83
2022/06/26 09:49:51;;;;;;;5.30;2.10;;;22.70;99.90;;;;;;5016929;28;20469;-83
2022/06/26 09:52:19;;;;;;;3.90;2.00;;;22.80;99.90;;;;;;5017681;28;20461;-82
2022/06/26 09:54:48;;;;;;;3.27;2.30;;;22.90;99.90;;;;;;5021116;28;20446;-81
2022/06/26 09:57:15;;;;;;;3.77;2.37;;;23.00;99.90;;;;;;5017162;28;20445;-82
2022/06/26 09:59:42;;;;;;;3.47;1.70;;;22.90;99.90;;;;;;5016514;28;20493;-82
2022/06/26 10:07:48;;;;;;;4.70;3.23;;;22.90;99.90;;;;;;5022247;28;20441;-84
2022/06/26 10:10:19;;;;;;;3.57;1.63;;;22.80;99.90;;;;;;5019552;28;20453;-83
2022/06/26 10:12:48;;;;;;;3.67;1.67;;;22.80;99.90;;;;;;5021476;28;20515;-80
2022/06/26 10:15:19;;;;;;;2.53;1.20;;;22.60;99.90;;;;;;5019407;28;20537;-83
2022/06/26 10:18:09;;;;;;;2.33;1.30;;;22.60;99.90;;;;;;5022690;28;20463;-82
2022/06/26 10:20:38;;;;;;;3.30;1.47;;;22.30;99.90;;;;;;5017610;28;20478;-83
2022/06/26 10:23:05;;;;;;;2.60;1.47;;;22.30;99.90;;;;;;5019791;28;20592;-85
2022/06/26 10:25:34;;;;;;;5.47;1.20;;;22.40;99.90;;;;;;5024347;28;20441;-84
2022/06/26 10:28:01;;;;;;;3.13;1.30;;;22.40;99.90;;;;;;5035035;28;20432;-84
2022/06/26 10:30:31;;;;;;;2.60;1.33;;;22.60;99.90;;;;;;5036914;28;20517;-83
2022/06/26 10:33:08;;;;;;;4.43;1.50;;;22.80;99.90;;;;;;5020805;28;20464;-82
2022/06/26 10:35:42;;;;;;;3.33;1.83;;;22.90;99.90;;;;;;5018912;28;20541;-83
2022/06/26 10:38:23;;;;;;;2.67;1.20;;;23.10;99.90;;;;;;5018978;28;20478;-83
2022/06/26 10:44:01;;;;;;;3.60;1.33;;;23.00;99.90;;;;;;5024927;28;20424;-84
2022/06/26 10:46:36;;;;;;;2.20;1.20;;;22.90;99.90;;;;;;5018223;28;20973;-82
2022/06/26 10:49:07;;;;;;;3.40;1.50;;;22.70;99.90;;;;;;5021214;28;20481;-85
2022/06/26 10:51:34;;;;;;;2.73;1.30;;;22.60;99.90;;;;;;5018882;28;20441;-82
2022/06/26 10:54:02;;;;;;;3.63;1.60;;;22.40;99.90;;;;;;5019372;28;20477;-82
2022/06/26 10:56:31;;;;;;;2.43;1.30;;;22.40;99.90;;;;;;5013938;28;20457;-81
2022/06/26 10:59:02;;;;;;;3.30;1.73;;;22.40;99.90;;;;;;5018728;28;20531;-83
2022/06/26 11:01:29;;;;;;;3.87;1.47;;;22.10;99.90;;;;;;5011360;28;20493;-84
2022/06/26 11:03:57;;;;;;;4.03;1.37;;;22.20;99.90;;;;;;5019800;28;20450;-83
2022/06/26 11:06:28;;;;;;;2.53;1.20;;;22.10;99.90;;;;;;5018993;28;20537;-82
2022/06/26 11:08:56;;;;;;;4.53;1.67;;;22.10;99.90;;;;;;5015564;28;20855;-82
2022/06/26 11:11:30;;;;;;;2.73;1.30;;;22.10;99.90;;;;;;5011962;28;20449;-81
2022/06/26 11:14:00;;;;;;;3.17;1.40;;;22.10;99.90;;;;;;5014757;28;20460;-82
2022/06/26 11:16:32;;;;;;;3.17;1.20;;;22.00;99.90;;;;;;5020610;28;20894;-82
2022/06/26 11:18:59;;;;;;;2.50;1.20;;;22.20;99.90;;;;;;5020012;28;21098;-82
2022/06/26 11:21:27;;;;;;;2.40;1.17;;;22.30;99.90;;;;;;5020306;28;20489;-82
2022/06/26 11:23:54;;;;;;;3.10;1.50;;;22.20;99.90;;;;;;5021538;28;20453;-83
2022/06/26 11:26:22;;;;;;;3.77;1.57;;;22.30;99.90;;;;;;5020166;28;20536;-82
2022/06/26 11:28:56;;;;;;;2.50;1.27;;;22.40;99.90;;;;;;5019658;28;20572;-84
2022/06/26 11:31:26;;;;;;;2.40;1.50;;;22.60;99.90;;;;;;5019991;28;20516;-84
2022/06/26 11:33:53;;;;;;;2.40;1.50;;;22.80;99.90;;;;;;5020029;28;20454;-82
2022/06/26 11:36:22;;;;;;;3.10;1.70;;;23.10;99.90;;;;;;5019318;28;20533;-83
2022/06/26 11:38:53;;;;;;;3.13;1.60;;;23.20;99.90;;;;;;5017420;28;20481;-83
2022/06/26 11:41:21;;;;;;;3.30;1.20;;;23.20;99.90;;;;;;5011360;28;20458;-85
2022/06/26 11:43:53;;;;;;;2.90;1.27;;;23.80;99.90;;;;;;5016081;28;20545;-83
2022/06/26 11:46:21;;;;;;;3.07;1.37;;;24.40;99.90;;;;;;5021339;28;20453;-84
2022/06/26 11:48:52;;;;;;;2.70;1.60;;;24.70;99.90;;;;;;5018949;28;20500;-83
2022/06/26 11:51:20;;;;;;;2.50;1.30;;;24.90;99.90;;;;;;5021102;28;20527;-84
2022/06/26 11:53:49;;;;;;;2.90;1.23;;;24.90;99.90;;;;;;5019663;28;20462;-83
2022/06/26 11:56:22;;;;;;;2.77;1.53;;;25.00;99.90;;;;;;5020725;28;20517;-83
2022/06/26 11:58:51;;;;;;;3.00;1.47;;;25.10;99.90;;;;;;5018757;28;20600;-83
2022/06/26 12:01:19;;;;;;;4.13;1.17;;;25.00;99.90;;;;;;5019532;28;20478;-83
2022/06/26 12:03:57;;;;;;;3.20;1.57;;;25.00;99.90;;;;;;5019930;28;20584;-84
2022/06/26 12:06:31;;;;;;;4.07;1.67;;;25.10;99.90;;;;;;5006578;28;20485;-85
2022/06/26 12:08:59;;;;;;;3.67;1.27;;;24.70;99.90;;;;;;5019985;28;20488;-83
2022/06/26 12:11:41;;;;;;;3.90;1.17;;;24.70;99.90;;;;;;5019995;28;20984;-83
2022/06/26 12:14:12;;;;;;;2.60;1.43;;;24.60;99.90;;;;;;5019099;28;20454;-82
2022/06/26 12:16:49;;;;;;;3.27;1.43;;;24.50;99.90;;;;;;5022628;28;20977;-82
2022/06/26 12:19:19;;;;;;;4.30;1.43;;;24.30;99.90;;;;;;5030541;28;20473;-85
2022/06/26 12:21:48;;;;;;;2.70;1.40;;;24.20;99.90;;;;;;5038048;28;20516;-83
2022/06/26 12:24:16;;;;;;;4.03;1.53;;;24.10;99.90;;;;;;5036264;28;20452;-80
2022/06/26 12:26:43;;;;;;;3.47;1.50;;;24.10;99.90;;;;;;5034044;28;20493;-81
2022/06/26 12:29:12;;;;;;;3.00;1.33;;;23.90;99.90;;;;;;5039660;28;20444;-83
2022/06/26 12:31:40;;;;;;;2.63;1.30;;;23.80;99.90;;;;;;5050265;28;20513;-83
2022/06/26 12:34:08;;;;;;;2.63;1.23;;;23.70;99.90;;;;;;5026963;28;20474;-81
2022/06/26 12:36:38;;;;;;;3.67;1.40;;;23.40;99.90;;;;;;5019663;28;20860;-81
2022/06/26 12:39:06;;;;;;;2.50;1.70;;;23.20;99.90;;;;;;5017764;28;20454;-82
2022/06/26 12:41:34;;;;;;;3.90;1.20;;;23.20;99.90;;;;;;5017028;28;20519;-83
2022/06/26 12:44:02;;;;;;;2.90;1.30;;;22.90;99.90;;;;;;5018443;28;20485;-84
2022/06/26 12:46:31;;;;;;;3.83;1.47;;;23.00;99.90;;;;;;5016948;28;20458;-79
2022/06/26 12:48:58;;;;;;;3.30;1.37;;;23.00;99.90;;;;;;5017107;28;20634;-80
2022/06/26 12:51:27;;;;;;;3.47;1.67;;;22.90;99.90;;;;;;5017189;28;20493;-81
2022/06/26 12:53:55;;;;;;;2.90;1.60;;;22.90;99.90;;;;;;5018069;28;20462;-80
2022/06/26 12:56:22;;;;;;;3.20;1.40;;;23.00;99.90;;;;;;5016495;28;20488;-79
2022/06/26 12:58:49;;;;;;;3.03;1.50;;;23.10;99.90;;;;;;5016376;28;20500;-78
2022/06/26 13:01:17;;;;;;;3.50;1.63;;;23.00;99.90;;;;;;5016395;28;20493;-79
2022/06/26 13:03:44;;;;;;;3.97;1.57;;;22.90;99.90;;;;;;5015910;28;20528;-80